Terminal Aerodrome Forecast
Issued by NWS

Home | Current Version | Previous Version | Text Only | Print | Product List | Glossary On
Versions: 1 2 3 4 5 6 7 8 9 10 11 12 13 14
000
FTUS45 KVEF 221700
TAFHND
TAF
KHND 221723Z 2218/2318 07008KT P6SM SKC
     FM222200 16009KT P6SM SKC
     FM230100 19010KT P6SM FEW250
     FM231600 VRB05KT P6SM SCT250=

USA.gov is the U.S. government's official web portal to all federal, state and local government web resources and services.